createdAt,value
2018-12-24T00:00:48.515Z,100895.66
2018-12-24T00:03:18.681Z,100896.08
2018-12-24T00:05:49.985Z,100901.97
2018-12-24T00:08:18.744Z,100892.99
2018-12-24T00:10:47.286Z,100893.98
2018-12-24T00:13:16.184Z,100901.68
2018-12-24T00:15:44.752Z,100901.68
2018-12-24T00:18:15.315Z,100897.84
2018-12-24T00:20:43.945Z,100903.90
2018-12-24T00:23:12.564Z,100907.24
2018-12-24T00:25:41.185Z,100907.24
2018-12-24T00:28:09.810Z,100906.08
2018-12-24T00:30:38.321Z,100911.56
2018-12-24T00:33:07.068Z,100920.55
2018-12-24T00:35:35.639Z,100923.48
2018-12-24T00:38:04.389Z,100921.30
2018-12-24T00:40:32.982Z,100930.41
2018-12-24T00:43:01.588Z,100935.80
2018-12-24T00:45:30.130Z,100937.94
2018-12-24T00:47:58.856Z,100949.06
2018-12-24T00:50:27.449Z,100951.77
2018-12-24T00:52:56.067Z,100958.69
2018-12-24T00:55:24.923Z,100954.16
2018-12-24T00:57:53.714Z,100962.33
2018-12-24T01:00:25.059Z,100969.25
2018-12-24T01:02:53.843Z,100976.05
2018-12-24T01:05:22.387Z,100979.75
2018-12-24T01:07:51.006Z,100979.75
2018-12-24T01:10:19.596Z,100983.22
2018-12-24T01:12:48.209Z,100986.59
2018-12-24T01:15:16.846Z,100988.33
2018-12-24T01:17:45.380Z,100998.30
2018-12-24T01:20:13.965Z,101005.06
2018-12-24T01:22:42.495Z,101009.39
2018-12-24T01:25:11.242Z,101010.63
2018-12-24T01:27:39.778Z,101018.20
2018-12-24T01:30:08.576Z,101018.97
2018-12-24T01:32:37.129Z,101039.55
2018-12-24T01:35:06.121Z,101045.89
2018-12-24T01:37:34.719Z,101045.89
2018-12-24T01:40:03.431Z,101046.80
2018-12-24T01:42:33.573Z,101050.67
2018-12-24T01:45:02.404Z,101055.78
2018-12-24T01:47:31.037Z,101056.66
2018-12-24T01:49:59.836Z,101065.96
2018-12-24T01:52:28.465Z,101077.91
2018-12-24T01:54:58.374Z,101084.77
2018-12-24T01:57:26.927Z,101092.88
2018-12-24T02:00:21.641Z,101092.42
2018-12-24T02:02:50.312Z,101103.77
2018-12-24T02:05:18.932Z,101113.84
2018-12-24T02:07:47.467Z,101115.89
2018-12-24T02:10:17.135Z,101133.00
2018-12-24T02:12:45.689Z,101132.94
2018-12-24T02:15:14.232Z,101138.93
2018-12-24T02:17:42.803Z,101136.42
2018-12-24T02:20:11.377Z,101143.92
2018-12-24T02:22:39.962Z,101148.11
2018-12-24T02:25:08.747Z,101146.99
2018-12-24T02:27:37.390Z,101153.80
2018-12-24T02:30:06.398Z,101155.31
2018-12-24T02:32:35.088Z,101155.31
2018-12-24T02:35:03.699Z,101166.21
2018-12-24T02:37:32.301Z,101174.73
2018-12-24T02:40:00.901Z,101177.64
2018-12-24T02:42:29.520Z,101177.64
2018-12-24T02:44:58.114Z,101176.77
2018-12-24T02:47:26.639Z,101181.94
2018-12-24T02:49:55.164Z,101187.10
2018-12-24T02:52:23.778Z,101194.81
2018-12-24T02:54:52.402Z,101196.23
2018-12-24T02:57:21.103Z,101197.08
2018-12-24T02:59:49.605Z,101207.80
2018-12-24T03:02:18.239Z,101196.59
2018-12-24T03:04:48.329Z,101214.33
2018-12-24T03:07:16.915Z,101214.32
2018-12-24T03:09:45.573Z,101219.85
2018-12-24T03:12:14.266Z,101222.05
2018-12-24T03:14:42.928Z,101228.03
2018-12-24T03:17:13.088Z,101229.30
2018-12-24T03:19:41.736Z,101226.44
2018-12-24T03:22:10.265Z,101237.24
2018-12-24T03:24:38.842Z,101244.84
2018-12-24T03:27:07.557Z,101249.33
2018-12-24T03:29:37.648Z,101255.77
2018-12-24T03:32:06.272Z,101260.98
2018-12-24T03:34:34.820Z,101258.02
2018-12-24T03:37:03.565Z,101272.03
2018-12-24T03:39:32.212Z,101277.08
2018-12-24T03:42:00.801Z,101280.97
2018-12-24T03:44:29.454Z,101293.45
2018-12-24T03:46:58.637Z,101292.47
2018-12-24T03:49:27.231Z,101292.47
2018-12-24T03:51:55.913Z,101296.23
2018-12-24T03:54:24.465Z,101301.87
2018-12-24T03:56:55.312Z,101306.38
2018-12-24T03:59:23.913Z,101313.02
2018-12-24T04:01:52.593Z,101313.02
2018-12-24T04:04:21.146Z,101327.97
2018-12-24T04:06:49.774Z,101336.33
2018-12-24T04:09:18.306Z,101336.33
2018-12-24T04:11:47.019Z,101351.42
2018-12-24T04:14:15.709Z,101357.45
2018-12-24T04:16:44.367Z,101359.32
2018-12-24T04:19:15.792Z,101358.62
2018-12-24T04:21:44.377Z,101362.86
2018-12-24T04:24:14.107Z,101365.53
2018-12-24T04:26:42.658Z,101383.88
2018-12-24T04:29:11.219Z,101383.88
2018-12-24T04:31:39.812Z,101395.09
2018-12-24T04:34:08.404Z,101414.84
2018-12-24T04:36:37.090Z,101414.84
2018-12-24T04:39:06.311Z,101422.17
2018-12-24T04:41:35.053Z,101428.73
2018-12-24T04:44:03.762Z,101434.38
2018-12-24T04:46:33.570Z,101440.02
2018-12-24T04:49:02.210Z,101447.61
2018-12-24T04:51:30.862Z,101460.20
2018-12-24T04:53:59.640Z,101461.77
2018-12-24T04:56:28.416Z,101474.59
2018-12-24T04:58:56.985Z,101481.84
2018-12-24T05:01:25.585Z,101488.78
2018-12-24T05:03:54.128Z,101496.16
2018-12-24T05:06:22.764Z,101503.77
2018-12-24T05:08:51.583Z,101507.06
2018-12-24T05:11:20.237Z,101512.19
2018-12-24T05:13:48.744Z,101515.61
2018-12-24T05:16:17.299Z,101522.33
2018-12-24T05:18:45.911Z,101529.86
2018-12-24T05:21:14.456Z,101537.92
2018-12-24T05:23:43.000Z,101545.52
2018-12-24T05:26:11.531Z,101559.33
2018-12-24T05:28:40.151Z,101574.05
2018-12-24T05:31:08.705Z,101586.22
2018-12-24T05:33:37.420Z,101604.12
2018-12-24T05:36:06.003Z,101604.12
2018-12-24T05:38:34.545Z,101605.31
2018-12-24T05:41:03.128Z,101613.16
2018-12-24T05:43:31.754Z,101613.48
2018-12-24T05:46:00.355Z,101626.41
2018-12-24T05:48:28.999Z,101641.09
2018-12-24T05:50:57.565Z,101645.01
2018-12-24T05:53:26.115Z,101665.25
2018-12-24T05:55:54.645Z,101667.39
2018-12-24T05:58:23.182Z,101674.16
2018-12-24T06:00:51.716Z,101688.69
2018-12-24T06:03:20.303Z,101689.25
2018-12-24T06:05:48.826Z,101699.55
2018-12-24T06:08:17.353Z,101711.42
2018-12-24T06:10:45.896Z,101723.55
2018-12-24T06:13:14.522Z,101728.73
2018-12-24T06:15:43.081Z,101744.26
2018-12-24T06:18:11.842Z,101745.41
2018-12-24T06:20:40.379Z,101746.84
2018-12-24T06:23:08.915Z,101764.83
2018-12-24T06:25:37.566Z,101765.38
2018-12-24T06:28:06.169Z,101782.19
2018-12-24T06:30:35.546Z,101787.69
2018-12-24T06:33:04.080Z,101797.52
2018-12-24T06:35:32.816Z,101802.53
2018-12-24T06:38:01.350Z,101806.61
2018-12-24T06:40:29.874Z,101810.53
2018-12-24T06:42:58.448Z,101818.88
2018-12-24T06:45:26.992Z,101822.73
2018-12-24T06:47:56.406Z,101832.93
2018-12-24T06:50:24.963Z,101840.25
2018-12-24T06:52:53.528Z,101843.34
2018-12-24T06:55:22.138Z,101847.53
2018-12-24T06:57:50.691Z,101851.73
2018-12-24T07:00:19.277Z,101863.39
2018-12-24T07:02:47.835Z,101861.73
2018-12-24T07:05:16.388Z,101873.61
2018-12-24T07:07:45.031Z,101880.06
2018-12-24T07:10:13.592Z,101888.02
2018-12-24T07:12:42.122Z,101896.55
2018-12-24T07:15:10.670Z,101895.94
2018-12-24T07:17:39.281Z,101906.00
2018-12-24T07:20:07.840Z,101907.05
2018-12-24T07:22:36.430Z,101917.91
2018-12-24T07:25:05.132Z,101918.48
2018-12-24T07:27:33.690Z,101926.28
2018-12-24T07:30:02.241Z,101934.65
2018-12-24T07:32:30.794Z,101945.17
2018-12-24T07:34:59.358Z,101953.88
2018-12-24T07:37:27.939Z,101961.05
2018-12-24T07:39:56.508Z,101970.47
2018-12-24T07:42:25.312Z,101972.70
2018-12-24T07:44:54.158Z,101981.52
2018-12-24T07:47:22.683Z,102004.92
2018-12-24T07:49:51.253Z,102000.34
2018-12-24T07:52:19.787Z,102005.40
2018-12-24T07:54:48.354Z,102016.26
2018-12-24T07:57:16.881Z,102021.64
2018-12-24T07:59:45.466Z,102026.02
2018-12-24T08:02:14.001Z,102027.61
2018-12-24T08:04:42.548Z,102027.60
2018-12-24T08:07:11.109Z,102034.69
2018-12-24T08:09:39.726Z,102045.70
2018-12-24T08:12:08.376Z,102049.33
2018-12-24T08:14:36.932Z,102047.50
2018-12-24T08:17:05.610Z,102064.46
2018-12-24T08:19:34.414Z,102068.59
2018-12-24T08:22:03.187Z,102075.13
2018-12-24T08:24:31.786Z,102079.74
2018-12-24T08:27:00.384Z,102091.13
2018-12-24T08:29:28.922Z,102106.64
2018-12-24T08:31:57.550Z,102115.50
2018-12-24T08:34:26.116Z,102122.34
2018-12-24T08:36:54.851Z,102130.48
2018-12-24T08:39:23.451Z,102135.45
2018-12-24T08:41:52.100Z,102139.56
2018-12-24T08:44:20.677Z,102142.09
2018-12-24T08:46:49.232Z,102141.30
2018-12-24T08:49:17.966Z,102152.88
2018-12-24T08:51:46.516Z,102141.91
2018-12-24T08:54:15.080Z,102133.41
2018-12-24T08:56:43.722Z,102139.95
2018-12-24T08:59:12.269Z,102150.26
2018-12-24T09:01:40.819Z,102156.79
2018-12-24T09:04:11.094Z,102158.17
2018-12-24T09:06:39.650Z,102168.58
2018-12-24T09:09:08.206Z,102172.91
2018-12-24T09:11:36.746Z,102172.20
2018-12-24T09:14:05.299Z,102172.59
2018-12-24T09:16:33.830Z,102183.44
2018-12-24T09:19:02.370Z,102181.77
2018-12-24T09:21:30.929Z,102186.95
2018-12-24T09:23:59.447Z,102192.53
2018-12-24T09:26:28.133Z,102191.95
2018-12-24T09:28:56.793Z,102187.73
2018-12-24T09:31:25.331Z,102204.02
2018-12-24T09:33:53.885Z,102216.63
2018-12-24T09:36:22.484Z,102230.58
2018-12-24T09:38:51.110Z,102244.55
2018-12-24T09:41:19.666Z,102251.58
2018-12-24T09:43:48.405Z,102261.83
2018-12-24T09:46:16.991Z,102275.75
2018-12-24T09:48:45.816Z,102280.67
2018-12-24T09:51:14.371Z,102286.11
2018-12-24T09:53:42.995Z,102296.22
2018-12-24T09:56:12.553Z,102304.99
2018-12-24T09:58:41.143Z,102309.13
2018-12-24T10:01:09.629Z,102308.77
2018-12-24T10:03:38.534Z,102308.45
2018-12-24T10:06:07.637Z,102317.27
2018-12-24T10:08:38.387Z,102319.03
2018-12-24T10:11:06.940Z,102321.27
2018-12-24T10:13:35.527Z,102325.02
2018-12-24T10:16:04.143Z,102319.15
2018-12-24T10:18:32.715Z,102319.24
2018-12-24T10:21:01.355Z,102335.84
2018-12-24T10:23:29.960Z,102340.32
2018-12-24T10:25:58.506Z,102350.39
2018-12-24T10:28:27.066Z,102353.85
2018-12-24T10:30:56.519Z,102350.65
2018-12-24T10:33:25.117Z,102361.84
2018-12-24T10:35:53.644Z,102360.56
2018-12-24T10:38:22.203Z,102364.83
2018-12-24T10:40:53.401Z,102369.80
2018-12-24T10:43:21.976Z,102372.88
2018-12-24T10:45:50.564Z,102376.77
2018-12-24T10:48:19.376Z,102372.80
2018-12-24T10:50:47.992Z,102371.58
2018-12-24T10:53:16.548Z,102370.84
2018-12-24T10:55:45.237Z,102363.42
2018-12-24T10:58:13.968Z,102364.55
2018-12-24T11:00:42.595Z,102371.24
2018-12-24T11:03:11.159Z,102376.95
2018-12-24T11:05:39.685Z,102381.74
2018-12-24T11:08:08.227Z,102395.74
2018-12-24T11:10:36.782Z,102385.73
2018-12-24T11:13:05.478Z,102382.00
2018-12-24T11:15:34.917Z,102383.16
2018-12-24T11:18:03.471Z,102376.17
2018-12-24T11:20:32.400Z,102372.83
2018-12-24T11:23:00.976Z,102382.27
2018-12-24T11:25:29.521Z,102371.99
2018-12-24T11:27:58.094Z,102375.13
2018-12-24T11:30:26.644Z,102376.31
2018-12-24T11:32:55.305Z,102372.56
2018-12-24T11:35:23.883Z,102379.37
2018-12-24T11:37:52.457Z,102379.23
2018-12-24T11:40:21.244Z,102389.63
2018-12-24T11:42:49.807Z,102392.55
2018-12-24T11:45:18.492Z,102403.53
2018-12-24T11:47:47.173Z,102398.41
2018-12-24T11:50:15.773Z,102395.49
2018-12-24T11:52:44.548Z,102409.30
2018-12-24T11:55:13.314Z,102406.36
2018-12-24T11:57:41.833Z,102408.99
2018-12-24T12:00:10.441Z,102407.26
2018-12-24T12:02:39.068Z,102409.22
2018-12-24T12:05:08.377Z,102408.79
2018-12-24T12:07:37.701Z,102404.27
2018-12-24T12:10:06.811Z,102398.60
2018-12-24T12:12:36.974Z,102411.05
2018-12-24T12:15:05.852Z,102410.55
2018-12-24T12:17:34.388Z,102418.46
2018-12-24T12:20:02.995Z,102414.50
2018-12-24T12:22:33.194Z,102418.98
2018-12-24T12:25:01.843Z,102417.39
2018-12-24T12:27:30.422Z,102419.80
2018-12-24T12:29:59.013Z,102422.86
2018-12-24T12:32:27.578Z,102423.84
2018-12-24T12:34:56.121Z,102421.17
2018-12-24T12:37:24.690Z,102433.92
2018-12-24T12:39:53.354Z,102439.45
2018-12-24T12:42:21.928Z,102425.75
2018-12-24T12:44:53.957Z,102433.63
2018-12-24T12:47:22.507Z,102430.06
2018-12-24T12:49:51.056Z,102438.45
2018-12-24T12:52:19.613Z,102448.42
2018-12-24T12:54:48.144Z,102452.96
2018-12-24T12:57:16.806Z,102461.84
2018-12-24T12:59:45.572Z,102466.28
2018-12-24T13:02:14.281Z,102474.20
2018-12-24T13:04:42.865Z,102484.25
2018-12-24T13:07:11.527Z,102485.55
2018-12-24T13:09:42.388Z,102481.68
2018-12-24T13:12:11.068Z,102485.70
2018-12-24T13:14:41.179Z,102497.94
2018-12-24T13:17:09.746Z,102504.25
2018-12-24T13:19:38.404Z,102507.27
2018-12-24T13:22:06.961Z,102519.27
2018-12-24T13:24:35.528Z,102522.40
2018-12-24T13:27:04.105Z,102524.06
2018-12-24T13:29:32.682Z,102526.55
2018-12-24T13:32:01.231Z,102521.46
2018-12-24T13:34:29.763Z,102528.46
2018-12-24T13:36:58.296Z,102526.22
2018-12-24T13:39:26.876Z,102531.22
2018-12-24T13:41:55.427Z,102527.98
2018-12-24T13:44:23.992Z,102530.28
2018-12-24T13:46:52.709Z,102530.97
2018-12-24T13:50:07.443Z,102526.52
2018-12-24T13:52:35.914Z,102525.92
2018-12-24T13:55:04.479Z,102535.22
2018-12-24T13:57:32.970Z,102538.41
2018-12-24T14:00:01.390Z,102533.94
2018-12-24T14:02:29.842Z,102536.84
2018-12-24T14:04:58.339Z,102540.52
2018-12-24T14:07:26.799Z,102527.00
2018-12-24T14:09:55.595Z,102516.91
2018-12-24T14:12:24.068Z,102508.58
2018-12-24T14:14:52.647Z,102505.41
2018-12-24T14:17:21.136Z,102512.31
2018-12-24T14:19:49.735Z,102513.64
2018-12-24T14:22:18.193Z,102507.61
2018-12-24T14:24:46.621Z,102510.86
2018-12-24T14:27:15.149Z,102518.09
2018-12-24T14:29:45.500Z,102528.52
2018-12-24T14:32:13.804Z,102523.19
2018-12-24T14:34:42.258Z,102533.76
2018-12-24T14:37:10.844Z,102528.03
2018-12-24T14:39:39.300Z,102537.34
2018-12-24T14:42:07.936Z,102533.85
2018-12-24T14:44:36.468Z,102543.06
2018-12-24T14:47:05.073Z,102542.83
2018-12-24T14:49:33.656Z,102547.77
2018-12-24T14:52:02.148Z,102546.49
2018-12-24T14:54:30.725Z,102544.13
2018-12-24T14:56:59.179Z,102556.76
2018-12-24T14:59:27.622Z,102548.67
2018-12-24T15:01:56.201Z,102551.19
2018-12-24T15:04:24.652Z,102548.25
2018-12-24T15:06:53.097Z,102550.31
2018-12-24T15:09:21.701Z,102545.22
2018-12-24T15:11:50.159Z,102535.91
2018-12-24T15:14:19.675Z,102540.55
2018-12-24T15:16:48.105Z,102542.45
2018-12-24T15:19:16.667Z,102548.48
2018-12-24T15:21:45.095Z,102545.64
2018-12-24T15:24:13.597Z,102548.24
2018-12-24T15:26:42.192Z,102559.94
2018-12-24T15:29:11.737Z,102550.55
2018-12-24T15:31:40.265Z,102552.48
2018-12-24T15:34:08.811Z,102549.93
2018-12-24T15:36:37.344Z,102565.34
2018-12-24T15:39:07.197Z,102568.28
2018-12-24T15:41:35.666Z,102575.45
2018-12-24T15:44:04.213Z,102577.28
2018-12-24T15:46:32.643Z,102585.69
2018-12-24T15:49:01.315Z,102584.76
2018-12-24T15:51:29.742Z,102584.11
2018-12-24T15:53:58.242Z,102587.53
2018-12-24T15:56:26.867Z,102578.16
2018-12-24T15:58:56.121Z,102577.38
2018-12-24T16:01:24.658Z,102577.62
2018-12-24T16:03:53.226Z,102578.31
2018-12-24T16:06:21.730Z,102585.25
2018-12-24T16:08:50.187Z,102576.16
2018-12-24T16:11:18.783Z,102573.06
2018-12-24T16:13:47.287Z,102587.30
2018-12-24T16:16:15.782Z,102602.33
2018-12-24T16:18:44.217Z,102597.16
2018-12-24T16:21:12.749Z,102590.25
2018-12-24T16:23:41.354Z,102590.50
2018-12-24T16:26:09.730Z,102593.83
2018-12-24T16:28:38.239Z,102607.98
2018-12-24T16:31:06.726Z,102611.73
2018-12-24T16:33:35.314Z,102612.42
2018-12-24T16:36:03.857Z,102615.80
2018-12-24T16:38:32.415Z,102625.16
2018-12-24T16:41:00.868Z,102629.80
2018-12-24T16:43:31.090Z,102634.95
2018-12-24T16:45:59.956Z,102644.87
2018-12-24T16:48:28.751Z,102647.73
2018-12-24T16:50:58.915Z,102647.41
2018-12-24T16:53:29.333Z,102634.92
2018-12-24T16:55:57.818Z,102640.42
2018-12-24T16:58:26.284Z,102641.86
2018-12-24T17:00:54.936Z,102643.45
2018-12-24T17:03:23.642Z,102641.00
2018-12-24T17:05:52.421Z,102642.17
2018-12-24T17:08:21.136Z,102658.83
2018-12-24T17:10:49.906Z,102650.53
2018-12-24T17:13:18.565Z,102656.06
2018-12-24T17:15:46.986Z,102661.73
2018-12-24T17:18:15.554Z,102669.30
2018-12-24T17:20:44.266Z,102670.25
2018-12-24T17:23:12.728Z,102663.98
2018-12-24T17:25:41.194Z,102662.23
2018-12-24T17:28:09.689Z,102657.38
2018-12-24T17:30:38.187Z,102653.09
2018-12-24T17:33:06.640Z,102663.92
2018-12-24T17:35:35.143Z,102674.51
2018-12-24T17:38:03.698Z,102677.55
2018-12-24T17:40:32.220Z,102674.52
2018-12-24T17:43:00.831Z,102676.58
2018-12-24T17:45:29.453Z,102664.88
2018-12-24T17:47:58.158Z,102673.58
2018-12-24T17:50:26.649Z,102672.52
2018-12-24T17:52:55.138Z,102678.59
2018-12-24T17:55:23.618Z,102675.30
2018-12-24T17:57:52.277Z,102677.30
2018-12-24T18:00:20.731Z,102666.87
2018-12-24T18:02:49.229Z,102671.59
2018-12-24T18:05:17.643Z,102668.15
2018-12-24T18:07:46.102Z,102666.72
2018-12-24T18:10:15.138Z,102660.75
2018-12-24T18:12:43.589Z,102658.59
2018-12-24T18:15:12.104Z,102661.30
2018-12-24T18:17:40.698Z,102655.41
2018-12-24T18:20:09.201Z,102654.14
2018-12-24T18:22:37.801Z,102651.68
2018-12-24T18:25:06.384Z,102648.72
2018-12-24T18:27:34.928Z,102651.92
2018-12-24T18:30:03.360Z,102642.29
2018-12-24T18:32:31.854Z,102639.44
2018-12-24T18:35:00.339Z,102626.27
2018-12-24T18:37:28.803Z,102617.45
2018-12-24T18:39:57.555Z,102625.88
2018-12-24T18:42:26.065Z,102624.27
2018-12-24T18:44:54.572Z,102621.81
2018-12-24T18:47:23.130Z,102626.66
2018-12-24T18:49:51.570Z,102620.05
2018-12-24T18:52:20.046Z,102617.27
2018-12-24T18:54:48.619Z,102622.98
2018-12-24T18:57:17.071Z,102626.81
2018-12-24T18:59:45.555Z,102626.23
2018-12-24T19:02:14.041Z,102629.21
2018-12-24T19:04:42.486Z,102638.86
2018-12-24T19:07:10.954Z,102647.59
2018-12-24T19:09:41.132Z,102654.99
2018-12-24T19:12:09.734Z,102657.54
2018-12-24T19:14:38.282Z,102669.80
2018-12-24T19:17:06.865Z,102674.10
2018-12-24T19:19:35.381Z,102680.86
2018-12-24T19:22:04.020Z,102670.22
2018-12-24T19:24:32.811Z,102665.82
2018-12-24T19:27:01.353Z,102670.47
2018-12-24T19:29:31.750Z,102688.36
2018-12-24T19:32:00.437Z,102693.64
2018-12-24T19:34:29.026Z,102696.55
2018-12-24T19:36:57.645Z,102701.49
2018-12-24T19:39:26.472Z,102704.59
2018-12-24T19:41:58.087Z,102710.90
2018-12-24T19:44:26.660Z,102706.74
2018-12-24T19:46:55.230Z,102706.34
2018-12-24T19:49:23.824Z,102698.13
2018-12-24T19:51:52.321Z,102700.77
2018-12-24T19:54:21.049Z,102706.20
2018-12-24T19:56:49.550Z,102703.89
2018-12-24T19:59:18.352Z,102700.22
2018-12-24T20:01:47.054Z,102713.69
2018-12-24T20:04:15.614Z,102713.90
2018-12-24T20:06:44.074Z,102715.97
2018-12-24T20:09:12.683Z,102725.47
2018-12-24T20:11:41.625Z,102731.89
2018-12-24T20:14:10.310Z,102725.13
2018-12-24T20:16:38.751Z,102738.52
2018-12-24T20:19:07.430Z,102748.22
2018-12-24T20:21:36.374Z,102747.77
2018-12-24T20:24:05.000Z,102740.52
2018-12-24T20:26:33.827Z,102737.33
2018-12-24T20:29:02.284Z,102730.56
2018-12-24T20:31:30.785Z,102737.88
2018-12-24T20:33:59.418Z,102737.57
2018-12-24T20:36:27.949Z,102739.97
2018-12-24T20:38:56.460Z,102742.67
2018-12-24T20:41:24.969Z,102743.70
2018-12-24T20:43:53.418Z,102741.24
2018-12-24T20:46:21.909Z,102734.30
2018-12-24T20:48:52.474Z,102739.39
2018-12-24T20:51:20.541Z,102745.67
2018-12-24T20:53:48.988Z,102748.47
2018-12-24T20:56:17.567Z,102746.55
2018-12-24T20:58:46.093Z,102750.31
2018-12-24T21:01:14.717Z,102738.59
2018-12-24T21:03:43.375Z,102750.38
2018-12-24T21:06:12.671Z,102753.41
2018-12-24T21:08:41.622Z,102761.23
2018-12-24T21:11:11.161Z,102765.51
2018-12-24T21:13:39.672Z,102764.23
2018-12-24T21:16:08.206Z,102770.47
2018-12-24T21:18:36.702Z,102771.50
2018-12-24T21:21:05.294Z,102776.50
2018-12-24T21:23:33.862Z,102778.52
2018-12-24T21:26:02.424Z,102777.77
2018-12-24T21:28:30.996Z,102772.12
2018-12-24T21:30:59.579Z,102775.41
2018-12-24T21:33:28.034Z,102769.28
2018-12-24T21:35:56.638Z,102770.22
2018-12-24T21:38:25.269Z,102761.16
2018-12-24T21:40:53.912Z,102766.25
2018-12-24T21:43:22.468Z,102756.59
2018-12-24T21:45:51.126Z,102749.20
2018-12-24T21:48:23.715Z,102747.04
2018-12-24T21:50:50.119Z,102739.48
2018-12-24T21:53:18.541Z,102740.52
2018-12-24T21:55:46.985Z,102740.76
2018-12-24T21:58:15.472Z,102744.40
2018-12-24T22:00:46.594Z,102746.00
2018-12-24T22:03:15.048Z,102733.75
2018-12-24T22:05:43.534Z,102747.43
2018-12-24T22:08:11.991Z,102750.47
2018-12-24T22:10:40.435Z,102753.02
2018-12-24T22:13:08.935Z,102752.70
2018-12-24T22:15:37.407Z,102753.74
2018-12-24T22:18:05.920Z,102760.17
2018-12-24T22:20:34.503Z,102759.30
2018-12-24T22:23:03.148Z,102753.26
2018-12-24T22:25:31.745Z,102742.42
2018-12-24T22:28:00.518Z,102746.55
2018-12-24T22:30:29.265Z,102739.63
2018-12-24T22:32:58.043Z,102741.70
2018-12-24T22:35:28.263Z,102735.56
2018-12-24T22:37:57.157Z,102736.36
2018-12-24T22:40:25.805Z,102730.47
2018-12-24T22:42:54.271Z,102732.08
2018-12-24T22:45:22.860Z,102731.83
2018-12-24T22:47:51.305Z,102736.44
2018-12-24T22:50:19.836Z,102737.48
2018-12-24T22:52:48.332Z,102735.80
2018-12-24T22:55:16.805Z,102736.69
2018-12-24T22:57:45.435Z,102736.14
2018-12-24T23:00:15.848Z,102737.23
2018-12-24T23:02:44.428Z,102737.48
2018-12-24T23:05:12.903Z,102729.98
2018-12-24T23:07:43.143Z,102737.02
2018-12-24T23:10:11.686Z,102732.38
2018-12-24T23:12:40.283Z,102741.09
2018-12-24T23:15:09.046Z,102742.97
2018-12-24T23:17:37.476Z,102751.50
2018-12-24T23:20:06.159Z,102749.28
2018-12-24T23:22:34.948Z,102744.42
2018-12-24T23:25:03.558Z,102745.22
2018-12-24T23:27:32.059Z,102748.64
2018-12-24T23:30:00.496Z,102750.95
2018-12-24T23:32:28.938Z,102744.16
2018-12-24T23:34:57.396Z,102733.11
2018-12-24T23:37:26.183Z,102730.63
2018-12-24T23:39:54.658Z,102722.83
2018-12-24T23:42:23.124Z,102716.30
2018-12-24T23:44:51.621Z,102711.59
2018-12-24T23:47:20.068Z,102715.33
2018-12-24T23:49:48.499Z,102714.87
2018-12-24T23:52:17.037Z,102717.48
2018-12-24T23:54:45.447Z,102721.80
2018-12-24T23:57:13.868Z,102725.52
2018-12-24T23:59:42.368Z,102731.34
